Terminal Aerodrome Forecast
Issued by NWS

Home | Current Version | Previous Version | Text Only | Print | Product List | Glossary On
Versions: 1 2 3 4 5 6 7 8 9 10 11 12 13
000
FTUS46 KSEW 232300
TAFOLM
TAF
KOLM 232322Z 2400/2424 21008G15KT P6SM VCSH SCT019 BKN030 BKN045
     FM240900 21007G15KT P6SM VCSH OVC025
     FM242100 23010KT P6SM OVC050=

USA.gov is the U.S. government's official web portal to all federal, state and local government web resources and services.